Time;durP1;ratioP1;P1;durP2;ratioP2;P2;SDS_P1;SDS_P2;PMS_P1;PMS_P2;Temp;Humidity;BMP_temperature;BMP_pressure;BME280_temperature;BME280_humidity;BME280_pressure;Samples;Min_cycle;Max_cycle;Signal;HPM_P1;HPM_P2
2023/11/14 00:01:39;;;;;;;3.17;0.60;;;;;;;;;;10540102;27;20539;-75
2023/11/14 00:06:45;;;;;;;0.95;0.60;;;;;;;;;;10534504;28;20093;-75
2023/11/14 00:11:50;;;;;;;0.50;0.50;;;;;;;;;;10545454;27;20047;-75
2023/11/14 00:16:54;;;;;;;1.02;0.60;;;;;;;;;;10553561;27;20135;-75
2023/11/14 00:22:00;;;;;;;0.70;0.70;;;;;;;;;;10538655;28;20040;-74
2023/11/14 00:27:17;;;;;;;0.82;0.70;;;;;;;;;;10522117;27;20100;-74
2023/11/14 00:32:21;;;;;;;1.83;0.65;;;;;;;;;;10532003;27;20259;-74
2023/11/14 00:37:30;;;;;;;0.70;0.70;;;;;;;;;;10537079;28;20063;-74
2023/11/14 00:42:35;;;;;;;2.88;0.90;;;;;;;;;;10534205;28;21657;-74
2023/11/14 00:47:41;;;;;;;1.92;0.60;;;;;;;;;;10534248;28;20476;-74
2023/11/14 00:53:00;;;;;;;0.65;0.63;;;;;;;;;;10520412;28;20112;-74
2023/11/14 00:58:09;;;;;;;1.90;0.82;;;;;;;;;;10531915;28;20984;-74
2023/11/14 01:03:18;;;;;;;1.05;0.55;;;;;;;;;;10512417;28;20043;-74
2023/11/14 01:08:22;;;;;;;0.55;0.38;;;;;;;;;;10520717;27;20059;-74
2023/11/14 01:13:33;;;;;;;0.38;0.32;;;;;;;;;;10533576;27;20089;-74
2023/11/14 01:18:37;;;;;;;1.52;0.40;;;;;;;;;;10515250;28;20070;-74
2023/11/14 01:23:41;;;;;;;1.98;0.40;;;;;;;;;;10534731;28;20517;-73
2023/11/14 01:28:47;;;;;;;0.70;0.70;;;;;;;;;;10536497;27;20055;-74
2023/11/14 01:33:51;;;;;;;0.85;0.60;;;;;;;;;;10520643;28;20065;-73
2023/11/14 01:38:55;;;;;;;0.30;0.30;;;;;;;;;;10515381;28;20137;-73
2023/11/14 01:44:01;;;;;;;1.70;0.40;;;;;;;;;;10530906;28;20290;-75
2023/11/14 01:49:08;;;;;;;3.25;1.10;;;;;;;;;;10542460;28;20043;-75
2023/11/14 01:54:14;;;;;;;3.17;0.68;;;;;;;;;;10532816;28;20097;-73
2023/11/14 01:59:24;;;;;;;2.75;0.85;;;;;;;;;;10531774;28;20047;-74
2023/11/14 02:04:32;;;;;;;1.70;0.80;;;;;;;;;;10532427;28;20120;-73
2023/11/14 02:09:44;;;;;;;1.23;0.70;;;;;;;;;;10534296;28;20118;-74
2023/11/14 02:14:54;;;;;;;1.00;0.73;;;;;;;;;;10511177;28;20046;-75
2023/11/14 02:20:10;;;;;;;4.63;1.13;;;;;;;;;;10546437;27;20040;-74
2023/11/14 02:25:20;;;;;;;3.58;0.98;;;;;;;;;;10540207;28;20071;-75
2023/11/14 02:30:24;;;;;;;2.30;0.70;;;;;;;;;;10529383;28;20107;-74
2023/11/14 02:35:32;;;;;;;5.28;0.80;;;;;;;;;;10513401;28;20031;-74
2023/11/14 02:40:37;;;;;;;1.65;0.65;;;;;;;;;;10540998;27;20106;-74
2023/11/14 02:45:43;;;;;;;2.75;0.73;;;;;;;;;;10525510;27;20035;-73
2023/11/14 02:51:00;;;;;;;4.40;1.00;;;;;;;;;;10519796;28;20676;-74
2023/11/14 02:56:15;;;;;;;3.83;1.15;;;;;;;;;;10563636;27;20139;-74
2023/11/14 03:01:19;;;;;;;4.38;0.90;;;;;;;;;;10519487;28;20406;-74
2023/11/14 03:06:23;;;;;;;1.90;0.88;;;;;;;;;;10539808;27;20079;-74
2023/11/14 03:11:36;;;;;;;3.10;1.35;;;;;;;;;;10548986;27;20098;-74
2023/11/14 03:16:41;;;;;;;4.43;1.27;;;;;;;;;;10523678;28;20055;-74
2023/11/14 03:21:46;;;;;;;3.08;0.75;;;;;;;;;;10516817;27;20139;-74
2023/11/14 03:26:51;;;;;;;4.63;1.45;;;;;;;;;;10520048;28;20521;-74
2023/11/14 03:31:55;;;;;;;3.65;1.08;;;;;;;;;;10538052;28;20248;-73
2023/11/14 03:37:00;;;;;;;5.93;1.08;;;;;;;;;;10537433;27;20051;-74
2023/11/14 03:42:07;;;;;;;7.30;1.23;;;;;;;;;;10540397;28;20036;-73
2023/11/14 03:47:12;;;;;;;3.28;1.10;;;;;;;;;;10542149;27;20139;-73
2023/11/14 03:52:16;;;;;;;5.47;1.42;;;;;;;;;;10541626;28;20067;-74
2023/11/14 03:57:27;;;;;;;5.97;1.35;;;;;;;;;;10534591;27;20062;-75
2023/11/14 04:02:38;;;;;;;6.13;1.10;;;;;;;;;;10537178;27;20631;-74
2023/11/14 04:07:52;;;;;;;2.28;0.93;;;;;;;;;;10541291;28;20062;-75
2023/11/14 04:12:58;;;;;;;4.85;1.10;;;;;;;;;;10533110;28;20459;-76
2023/11/14 04:18:03;;;;;;;6.15;1.60;;;;;;;;;;10524496;28;20478;-75
2023/11/14 04:23:15;;;;;;;6.97;1.40;;;;;;;;;;10527087;27;20124;-75
2023/11/14 04:28:22;;;;;;;4.93;2.00;;;;;;;;;;10555873;27;20128;-74
2023/11/14 04:33:36;;;;;;;4.28;1.23;;;;;;;;;;10545926;27;20043;-74
2023/11/14 04:38:39;;;;;;;2.45;0.98;;;;;;;;;;10530218;28;20496;-74
2023/11/14 04:43:45;;;;;;;5.03;1.50;;;;;;;;;;10541295;27;20039;-74
2023/11/14 04:48:55;;;;;;;7.10;1.83;;;;;;;;;;10519173;28;20704;-74
2023/11/14 04:53:59;;;;;;;6.53;1.05;;;;;;;;;;10537473;27;20154;-74
2023/11/14 04:59:02;;;;;;;;;;;;;;;;;;10539723;27;20039;-74
2023/11/14 05:04:07;;;;;;;7.53;0.90;;;;;;;;;;10536516;27;19924;-73
2023/11/14 05:09:13;;;;;;;3.90;1.05;;;;;;;;;;10538740;27;21365;-74
2023/11/14 05:14:18;;;;;;;5.97;1.05;;;;;;;;;;10536959;28;20048;-74
2023/11/14 05:19:27;;;;;;;3.00;1.20;;;;;;;;;;10537306;28;20523;-74
2023/11/14 05:30:36;;;;;;;3.10;1.15;;;;;;;;;;10538351;28;20042;-74
2023/11/14 05:35:41;;;;;;;1.60;1.27;;;;;;;;;;10516112;28;20127;-74
2023/11/14 05:40:50;;;;;;;6.88;1.35;;;;;;;;;;10518342;27;20047;-74
2023/11/14 05:45:56;;;;;;;1.23;1.00;;;;;;;;;;10519854;28;20089;-74
2023/11/14 05:51:05;;;;;;;5.05;0.68;;;;;;;;;;10535952;28;20038;-73
2023/11/14 05:56:11;;;;;;;4.32;1.23;;;;;;;;;;10504539;28;20455;-75
2023/11/14 06:01:19;;;;;;;2.13;0.65;;;;;;;;;;10541194;28;20613;-74
2023/11/14 06:06:27;;;;;;;1.35;0.77;;;;;;;;;;10546227;28;20060;-74
2023/11/14 06:11:35;;;;;;;0.77;0.57;;;;;;;;;;10502888;28;20044;-75
2023/11/14 06:16:39;;;;;;;2.22;1.13;;;;;;;;;;10541854;28;20062;-75
2023/11/14 06:21:49;;;;;;;1.27;0.82;;;;;;;;;;10527258;27;20055;-75
2023/11/14 06:26:52;;;;;;;4.88;1.15;;;;;;;;;;10543434;28;20040;-74
2023/11/14 06:32:01;;;;;;;0.60;0.60;;;;;;;;;;10538146;28;20047;-75
2023/11/14 06:37:10;;;;;;;4.55;1.10;;;;;;;;;;10538751;27;20039;-74
2023/11/14 06:42:16;;;;;;;3.50;0.80;;;;;;;;;;10528941;27;20385;-74
2023/11/14 06:47:19;;;;;;;0.75;0.43;;;;;;;;;;10559398;27;20043;-74
2023/11/14 06:52:30;;;;;;;1.55;0.80;;;;;;;;;;10533592;28;20126;-75
2023/11/14 06:57:34;;;;;;;3.13;0.80;;;;;;;;;;10512995;28;20440;-74
2023/11/14 07:02:38;;;;;;;2.63;0.70;;;;;;;;;;10556852;27;20032;-75
2023/11/14 07:07:51;;;;;;;0.47;0.47;;;;;;;;;;10527626;27;20130;-75
2023/11/14 07:12:57;;;;;;;2.97;0.93;;;;;;;;;;10557354;27;20047;-76
2023/11/14 07:18:08;;;;;;;1.70;0.60;;;;;;;;;;10551060;27;20181;-74
2023/11/14 07:23:19;;;;;;;0.43;0.30;;;;;;;;;;10541606;28;20043;-75
2023/11/14 07:28:24;;;;;;;0.52;0.52;;;;;;;;;;10534392;28;20065;-75
2023/11/14 07:33:39;;;;;;;1.27;0.50;;;;;;;;;;10536093;27;20196;-75
2023/11/14 07:38:54;;;;;;;1.02;0.50;;;;;;;;;;10512707;28;20056;-74
2023/11/14 07:43:57;;;;;;;0.60;0.60;;;;;;;;;;10542927;27;20550;-75
2023/11/14 07:49:01;;;;;;;1.67;0.63;;;;;;;;;;10517516;27;20040;-75
2023/11/14 07:54:17;;;;;;;3.95;0.88;;;;;;;;;;10536431;28;20060;-75
2023/11/14 07:59:21;;;;;;;2.10;0.70;;;;;;;;;;10534062;27;20117;-75
2023/11/14 08:04:26;;;;;;;0.63;0.30;;;;;;;;;;10527929;28;20044;-75
2023/11/14 08:09:35;;;;;;;1.75;0.43;;;;;;;;;;10537128;28;20031;-75
2023/11/14 08:14:39;;;;;;;0.68;0.60;;;;;;;;;;10530029;28;20036;-75
2023/11/14 08:19:48;;;;;;;0.68;0.47;;;;;;;;;;10534881;28;20051;-75
2023/11/14 08:24:54;;;;;;;0.82;0.50;;;;;;;;;;10534049;27;20035;-75
2023/11/14 08:29:57;;;;;;;1.95;0.50;;;;;;;;;;10534191;28;20062;-76
2023/11/14 08:35:03;;;;;;;0.65;0.50;;;;;;;;;;10538677;27;20448;-73
2023/11/14 08:40:12;;;;;;;0.80;0.60;;;;;;;;;;10539440;27;20035;-74
2023/11/14 08:45:15;;;;;;;2.45;0.75;;;;;;;;;;10542271;27;20100;-74
2023/11/14 08:50:30;;;;;;;1.55;0.60;;;;;;;;;;10540155;27;20043;-76
2023/11/14 08:55:37;;;;;;;0.73;0.50;;;;;;;;;;10521224;27;20044;-75
2023/11/14 09:00:44;;;;;;;1.55;0.50;;;;;;;;;;10551121;27;20423;-74
2023/11/14 09:05:48;;;;;;;2.55;0.60;;;;;;;;;;10552982;27;20072;-74
2023/11/14 09:16:17;;;;;;;1.45;0.40;;;;;;;;;;10532198;27;20110;-76
2023/11/14 09:21:20;;;;;;;0.35;0.35;;;;;;;;;;10532729;27;20048;-74
2023/11/14 09:26:35;;;;;;;1.52;0.30;;;;;;;;;;10534132;28;20090;-76
2023/11/14 09:31:54;;;;;;;1.45;0.30;;;;;;;;;;10538428;28;20044;-74
2023/11/14 09:37:07;;;;;;;1.55;0.45;;;;;;;;;;10536556;28;20027;-74
2023/11/14 09:42:15;;;;;;;0.95;0.40;;;;;;;;;;10518349;28;20083;-74
2023/11/14 09:47:20;;;;;;;1.50;0.50;;;;;;;;;;10552313;27;20044;-75
2023/11/14 09:52:26;;;;;;;0.93;0.40;;;;;;;;;;10519600;28;20038;-74
2023/11/14 09:57:33;;;;;;;0.60;0.35;;;;;;;;;;10517336;28;20047;-75
2023/11/14 10:02:37;;;;;;;0.45;0.38;;;;;;;;;;10519411;28;20128;-75
2023/11/14 10:07:41;;;;;;;0.22;0.22;;;;;;;;;;10541843;28;20078;-73
2023/11/14 10:12:46;;;;;;;;;;;;;;;;;;10516302;28;20425;-74
2023/11/14 10:17:57;;;;;;;2.53;0.73;;;;;;;;;;10539258;28;19920;-75
2023/11/14 10:23:04;;;;;;;2.63;0.43;;;;;;;;;;10535674;28;20039;-75
2023/11/14 10:28:18;;;;;;;1.27;0.50;;;;;;;;;;10517382;28;20135;-75
2023/11/14 10:33:30;;;;;;;0.28;0.28;;;;;;;;;;10516338;28;20638;-74
2023/11/14 10:38:36;;;;;;;0.75;0.40;;;;;;;;;;10535748;28;20046;-75
2023/11/14 10:43:40;;;;;;;2.30;0.60;;;;;;;;;;10523069;28;20608;-76
2023/11/14 10:48:46;;;;;;;0.90;0.38;;;;;;;;;;10535789;28;20226;-75
2023/11/14 10:53:57;;;;;;;0.68;0.30;;;;;;;;;;10530958;28;20044;-75
2023/11/14 10:59:03;;;;;;;0.55;0.50;;;;;;;;;;10530458;27;20051;-75
2023/11/14 11:04:10;;;;;;;1.00;0.43;;;;;;;;;;10538864;28;22620;-75
2023/11/14 11:09:16;;;;;;;0.40;0.40;;;;;;;;;;10557693;27;20135;-75
2023/11/14 11:14:21;;;;;;;1.05;0.45;;;;;;;;;;10524066;28;20080;-75
2023/11/14 11:19:29;;;;;;;1.20;0.30;;;;;;;;;;10539303;28;20050;-76
2023/11/14 11:24:32;;;;;;;1.23;0.32;;;;;;;;;;10536967;27;20089;-75
2023/11/14 11:29:51;;;;;;;0.65;0.30;;;;;;;;;;10518615;28;20436;-76
2023/11/14 11:35:13;;;;;;;0.40;0.40;;;;;;;;;;10518418;27;20064;-76
2023/11/14 11:40:21;;;;;;;0.52;0.20;;;;;;;;;;10538890;27;20578;-75
2023/11/14 11:45:34;;;;;;;1.98;0.22;;;;;;;;;;10534322;28;20044;-74
2023/11/14 11:50:40;;;;;;;;;;;;;;;;;;10550558;27;20042;-74
2023/11/14 11:55:42;;;;;;;;;;;;;;;;;;10529593;27;19977;-73
2023/11/14 12:00:47;;;;;;;0.20;0.20;;;;;;;;;;10551157;27;20038;-73
2023/11/14 12:05:54;;;;;;;0.50;0.20;;;;;;;;;;10536188;27;20040;-73
2023/11/14 12:10:58;;;;;;;1.27;0.50;;;;;;;;;;10538331;28;20051;-73
2023/11/14 12:16:04;;;;;;;0.38;0.32;;;;;;;;;;10541278;27;20425;-75
2023/11/14 12:21:08;;;;;;;0.52;0.38;;;;;;;;;;10521391;27;20064;-74
2023/11/14 12:26:12;;;;;;;0.95;0.55;;;;;;;;;;10520900;28;20075;-74
2023/11/14 12:31:25;;;;;;;1.55;0.50;;;;;;;;;;10547669;27;20035;-74
2023/11/14 12:36:34;;;;;;;0.85;0.35;;;;;;;;;;10537802;27;20028;-75
2023/11/14 12:41:43;;;;;;;2.05;0.47;;;;;;;;;;10545467;28;20051;-74
2023/11/14 12:46:54;;;;;;;1.40;0.80;;;;;;;;;;10503004;27;20089;-74
2023/11/14 12:52:00;;;;;;;1.35;0.45;;;;;;;;;;10549699;27;20142;-74
2023/11/14 12:57:05;;;;;;;0.85;0.22;;;;;;;;;;10515521;28;20054;-74
2023/11/14 13:02:14;;;;;;;1.95;0.68;;;;;;;;;;10530508;28;20082;-74
2023/11/14 13:07:18;;;;;;;0.90;0.32;;;;;;;;;;10506489;28;20064;-74
2023/11/14 13:12:21;;;;;;;0.30;0.20;;;;;;;;;;10530517;28;20078;-74
2023/11/14 13:17:31;;;;;;;0.60;0.38;;;;;;;;;;10547779;27;20039;-72
2023/11/14 13:22:36;;;;;;;1.02;0.30;;;;;;;;;;10515872;28;20067;-73
2023/11/14 13:27:39;;;;;;;0.85;0.40;;;;;;;;;;10508856;28;20579;-74
2023/11/14 13:32:47;;;;;;;0.35;0.28;;;;;;;;;;10525938;28;20115;-74
2023/11/14 13:37:51;;;;;;;1.05;0.55;;;;;;;;;;10525768;28;20180;-75
2023/11/14 13:42:55;;;;;;;0.55;0.30;;;;;;;;;;10529206;28;20059;-74
2023/11/14 13:48:02;;;;;;;0.68;0.60;;;;;;;;;;10514342;28;20043;-74
2023/11/14 13:53:08;;;;;;;1.33;0.45;;;;;;;;;;10513263;28;20544;-74
2023/11/14 13:58:14;;;;;;;0.70;0.30;;;;;;;;;;10516084;28;20051;-75
2023/11/14 14:03:20;;;;;;;0.32;0.32;;;;;;;;;;10525607;28;20173;-74
2023/11/14 14:08:25;;;;;;;1.75;0.45;;;;;;;;;;10510957;28;20584;-74
2023/11/14 14:13:30;;;;;;;0.52;0.30;;;;;;;;;;10532506;28;20043;-76
2023/11/14 14:18:40;;;;;;;1.40;0.35;;;;;;;;;;10525724;28;20051;-75
2023/11/14 14:23:44;;;;;;;0.77;0.40;;;;;;;;;;10517056;28;20073;-73
2023/11/14 14:28:47;;;;;;;0.47;0.32;;;;;;;;;;10521644;28;20048;-75
2023/11/14 14:33:55;;;;;;;0.30;0.30;;;;;;;;;;10535027;28;20050;-76
2023/11/14 14:39:10;;;;;;;0.40;0.22;;;;;;;;;;10506130;28;20265;-75
2023/11/14 14:44:19;;;;;;;0.73;0.32;;;;;;;;;;10518581;28;20705;-75
2023/11/14 14:49:27;;;;;;;3.22;0.90;;;;;;;;;;10541453;27;20067;-76
2023/11/14 14:54:31;;;;;;;2.30;0.57;;;;;;;;;;10510864;27;20054;-75
2023/11/14 14:59:39;;;;;;;0.95;0.43;;;;;;;;;;10554113;27;20497;-75
2023/11/14 15:04:45;;;;;;;1.58;0.80;;;;;;;;;;10515524;28;20059;-76
2023/11/14 15:09:52;;;;;;;1.13;0.60;;;;;;;;;;10545534;28;20047;-76
2023/11/14 15:15:00;;;;;;;0.57;0.40;;;;;;;;;;10546686;27;20044;-76
2023/11/14 15:20:13;;;;;;;1.38;0.73;;;;;;;;;;10538537;27;20055;-76
2023/11/14 15:25:20;;;;;;;1.58;0.50;;;;;;;;;;10532497;27;20106;-76
2023/11/14 15:30:26;;;;;;;0.28;0.28;;;;;;;;;;10537627;27;20056;-75
2023/11/14 15:35:33;;;;;;;1.00;0.70;;;;;;;;;;10542064;28;20036;-75
2023/11/14 15:40:39;;;;;;;1.45;0.60;;;;;;;;;;10533712;27;20232;-77
2023/11/14 15:45:42;;;;;;;0.80;0.40;;;;;;;;;;10533867;27;20043;-77
2023/11/14 15:50:51;;;;;;;2.03;0.90;;;;;;;;;;10536479;28;20044;-77
2023/11/14 15:56:03;;;;;;;1.70;0.75;;;;;;;;;;10537500;27;20040;-77
2023/11/14 16:01:17;;;;;;;2.20;0.98;;;;;;;;;;10539804;28;20089;-76
2023/11/14 16:06:25;;;;;;;1.63;0.70;;;;;;;;;;10517016;28;20648;-77
2023/11/14 16:11:29;;;;;;;1.08;0.65;;;;;;;;;;10515815;27;20071;-76
2023/11/14 16:16:33;;;;;;;0.93;0.38;;;;;;;;;;10533241;27;20168;-76
2023/11/14 16:21:37;;;;;;;;;;;;;;;;;;10541839;27;20533;-75
2023/11/14 16:26:45;;;;;;;0.98;0.57;;;;;;;;;;10527477;28;19931;-76
2023/11/14 16:31:49;;;;;;;0.20;0.20;;;;;;;;;;10515974;28;20051;-75
2023/11/14 16:36:56;;;;;;;0.77;0.50;;;;;;;;;;10538777;28;20089;-75
2023/11/14 16:42:02;;;;;;;1.23;0.70;;;;;;;;;;10546506;28;20035;-74
2023/11/14 16:47:06;;;;;;;0.57;0.38;;;;;;;;;;10542652;27;20489;-74
2023/11/14 16:52:13;;;;;;;1.02;0.35;;;;;;;;;;10524827;28;20040;-76
2023/11/14 16:57:21;;;;;;;3.30;1.20;;;;;;;;;;10536280;28;20040;-76
2023/11/14 17:02:26;;;;;;;3.00;0.98;;;;;;;;;;10516281;28;20044;-75
2023/11/14 17:07:31;;;;;;;1.27;0.50;;;;;;;;;;10540444;27;20349;-76
2023/11/14 17:12:42;;;;;;;0.65;0.52;;;;;;;;;;10517234;27;20052;-76
2023/11/14 17:17:47;;;;;;;2.53;1.00;;;;;;;;;;10532275;28;20035;-76
2023/11/14 17:22:55;;;;;;;0.52;0.38;;;;;;;;;;10514758;27;20071;-76
2023/11/14 17:28:00;;;;;;;2.20;1.20;;;;;;;;;;10534749;28;20471;-76
2023/11/14 17:33:04;;;;;;;0.75;0.57;;;;;;;;;;10502188;28;20054;-76
2023/11/14 17:38:07;;;;;;;2.17;1.20;;;;;;;;;;10534413;28;20106;-76
2023/11/14 17:43:14;;;;;;;1.53;1.10;;;;;;;;;;10520001;27;20044;-76
2023/11/14 17:48:20;;;;;;;26.02;6.53;;;;;;;;;;10535200;28;20035;-77
2023/11/14 17:53:24;;;;;;;6.25;1.92;;;;;;;;;;10516649;28;20047;-78
2023/11/14 17:58:29;;;;;;;6.15;1.88;;;;;;;;;;10530797;28;20143;-76
2023/11/14 18:03:32;;;;;;;15.95;4.00;;;;;;;;;;10514515;28;20571;-76
2023/11/14 18:08:36;;;;;;;3.70;1.67;;;;;;;;;;10544064;28;20044;-76
2023/11/14 18:13:43;;;;;;;2.22;1.52;;;;;;;;;;10518588;28;20134;-77
2023/11/14 18:18:47;;;;;;;0.82;0.73;;;;;;;;;;10528902;28;20047;-75
2023/11/14 18:23:51;;;;;;;4.85;1.98;;;;;;;;;;10511464;27;20712;-76
2023/11/14 18:28:57;;;;;;;4.05;1.98;;;;;;;;;;10525889;28;20048;-76
2023/11/14 18:34:05;;;;;;;2.00;0.90;;;;;;;;;;10533614;28;20555;-76
2023/11/14 18:39:10;;;;;;;5.97;2.33;;;;;;;;;;10547037;28;20035;-76
2023/11/14 18:44:18;;;;;;;5.00;1.42;;;;;;;;;;10524232;28;20468;-75
2023/11/14 18:49:22;;;;;;;0.75;0.50;;;;;;;;;;10538216;28;20052;-75
2023/11/14 18:54:30;;;;;;;6.63;2.30;;;;;;;;;;10521250;28;20120;-77
2023/11/14 19:00:10;;;;;;;2.03;1.17;;;;;;;;;;10545819;27;20051;-78
2023/11/14 19:05:18;;;;;;;2.30;0.60;;;;;;;;;;10533211;27;20043;-78
2023/11/14 19:10:23;;;;;;;0.98;0.57;;;;;;;;;;10531996;28;20198;-77
2023/11/14 19:15:58;;;;;;;1.42;0.90;;;;;;;;;;10531036;28;20493;-76
2023/11/14 19:21:17;;;;;;;2.60;0.85;;;;;;;;;;10542773;27;20549;-77
2023/11/14 19:26:52;;;;;;;1.00;0.65;;;;;;;;;;10528381;27;20542;-78
2023/11/14 19:31:57;;;;;;;0.57;0.40;;;;;;;;;;10504274;28;20050;-76
2023/11/14 19:37:07;;;;;;;1.10;0.55;;;;;;;;;;10535001;27;20048;-77
2023/11/14 19:42:17;;;;;;;0.98;0.57;;;;;;;;;;10541504;27;20039;-78
2023/11/14 19:47:22;;;;;;;1.33;0.50;;;;;;;;;;10539113;27;20142;-77
2023/11/14 19:52:34;;;;;;;0.93;0.43;;;;;;;;;;10540583;28;20053;-78
2023/11/14 19:57:40;;;;;;;0.40;0.35;;;;;;;;;;10555388;27;20062;-77
2023/11/14 20:02:57;;;;;;;1.27;0.40;;;;;;;;;;10552872;27;20048;-77
2023/11/14 20:08:02;;;;;;;0.45;0.20;;;;;;;;;;10539050;27;20039;-76
2023/11/14 20:13:17;;;;;;;1.55;0.30;;;;;;;;;;10552334;28;20423;-79
2023/11/14 20:18:23;;;;;;;0.50;0.50;;;;;;;;;;10560097;27;20509;-76
2023/11/14 20:23:28;;;;;;;0.45;0.40;;;;;;;;;;10557474;27;20047;-78
2023/11/14 20:28:34;;;;;;;1.92;0.50;;;;;;;;;;10546121;27;20038;-78
2023/11/14 20:33:37;;;;;;;0.25;0.25;;;;;;;;;;10565933;28;20488;-77
2023/11/14 20:38:44;;;;;;;0.43;0.30;;;;;;;;;;10579207;27;20042;-78
2023/11/14 20:43:49;;;;;;;0.47;0.28;;;;;;;;;;10538831;28;20409;-76
2023/11/14 20:48:53;;;;;;;;;;;;;;;;;;10530936;27;20661;-79
2023/11/14 20:54:15;;;;;;;0.43;0.30;;;;;;;;;;10571237;27;19927;-77
2023/11/14 20:59:37;;;;;;;0.65;0.32;;;;;;;;;;10557496;27;20089;-76
2023/11/14 21:04:42;;;;;;;1.87;0.47;;;;;;;;;;10543998;27;20057;-77
2023/11/14 21:09:56;;;;;;;0.20;0.20;;;;;;;;;;10577041;27;20048;-78
2023/11/14 21:15:02;;;;;;;0.70;0.20;;;;;;;;;;10546745;27;20492;-77
2023/11/14 21:20:09;;;;;;;0.50;0.17;;;;;;;;;;10536771;27;20051;-79
2023/11/14 21:25:19;;;;;;;0.77;0.20;;;;;;;;;;10577164;27;20454;-79
2023/11/14 21:30:25;;;;;;;0.20;0.10;;;;;;;;;;10568610;27;20040;-77
2023/11/14 21:35:38;;;;;;;1.83;0.50;;;;;;;;;;10564377;28;20447;-78
2023/11/14 21:40:43;;;;;;;0.68;0.50;;;;;;;;;;10564276;27;20130;-77
2023/11/14 21:45:47;;;;;;;1.10;0.32;;;;;;;;;;10546815;28;20122;-78
2023/11/14 21:50:55;;;;;;;0.55;0.32;;;;;;;;;;10530656;28;20393;-77
2023/11/14 21:56:09;;;;;;;0.40;0.30;;;;;;;;;;10534787;28;20507;-76
2023/11/14 22:01:25;;;;;;;1.02;0.50;;;;;;;;;;10541519;28;20118;-79
2023/11/14 22:06:42;;;;;;;0.82;0.32;;;;;;;;;;10519319;28;20705;-77
2023/11/14 22:12:11;;;;;;;0.20;0.10;;;;;;;;;;10536329;28;20040;-77
2023/11/14 22:17:18;;;;;;;0.10;0.10;;;;;;;;;;10523787;28;20043;-79
2023/11/14 22:22:25;;;;;;;0.50;0.30;;;;;;;;;;10541268;28;20608;-78
2023/11/14 22:27:39;;;;;;;0.32;0.22;;;;;;;;;;10541150;28;20028;-76
2023/11/14 22:32:46;;;;;;;1.98;0.40;;;;;;;;;;10529716;28;20048;-78
2023/11/14 22:37:55;;;;;;;1.35;0.40;;;;;;;;;;10513159;28;20124;-78
2023/11/14 22:43:08;;;;;;;0.82;0.13;;;;;;;;;;10514084;28;20036;-78
2023/11/14 22:59:09;;;;;;;0.30;0.30;;;;;;;;;;10546705;27;20516;-78
2023/11/14 23:04:22;;;;;;;0.47;0.35;;;;;;;;;;10540131;27;20118;-77
2023/11/14 23:09:32;;;;;;;0.88;0.40;;;;;;;;;;10519445;28;20220;-78
2023/11/14 23:14:36;;;;;;;0.30;0.30;;;;;;;;;;10534801;27;20048;-77
2023/11/14 23:19:39;;;;;;;;;;;;;;;;;;10528751;28;20051;-78
2023/11/14 23:24:57;;;;;;;0.20;0.20;;;;;;;;;;10527119;28;20381;-78
2023/11/14 23:30:04;;;;;;;0.65;0.30;;;;;;;;;;10543133;27;20249;-78
2023/11/14 23:35:16;;;;;;;0.73;0.50;;;;;;;;;;10543273;27;20516;-77
2023/11/14 23:40:25;;;;;;;0.47;0.40;;;;;;;;;;10554727;27;20505;-77
2023/11/14 23:45:30;;;;;;;0.98;0.32;;;;;;;;;;10527897;28;20040;-76
2023/11/14 23:50:34;;;;;;;0.57;0.30;;;;;;;;;;10525796;27;20062;-77
2023/11/14 23:55:48;;;;;;;0.40;0.30;;;;;;;;;;10535848;28;20050;-78
